Time;durP1;ratioP1;P1;durP2;ratioP2;P2;SDS_P1;SDS_P2;PMS_P1;PMS_P2;Temp;Humidity;BMP_temperature;BMP_pressure;BME280_temperature;BME280_humidity;BME280_pressure;Samples;Min_cycle;Max_cycle;Signal;HPM_P1;HPM_P2
2021/12/09 00:01:20;;;;;;;8.40;6.70;;;;;;;;;;5035418;28;20189;-66
2021/12/09 00:03:47;;;;;;;11.50;7.45;;;;;;;;;;5035447;28;20193;-66
2021/12/09 00:06:15;;;;;;;15.05;7.90;;;;;;;;;;5035897;28;20228;-66
2021/12/09 00:08:43;;;;;;;10.05;6.65;;;;;;;;;;5034995;28;20197;-66
2021/12/09 00:11:11;;;;;;;6.63;5.95;;;;;;;;;;5035374;28;20197;-66
2021/12/09 00:13:39;;;;;;;10.27;6.28;;;;;;;;;;5035029;28;20199;-67
2021/12/09 00:16:06;;;;;;;10.70;6.63;;;;;;;;;;5034665;28;20229;-66
2021/12/09 00:18:33;;;;;;;12.95;7.18;;;;;;;;;;5034594;28;20287;-67
2021/12/09 00:21:00;;;;;;;7.68;5.93;;;;;;;;;;5034921;28;20285;-66
2021/12/09 00:23:28;;;;;;;15.23;7.32;;;;;;;;;;5034878;28;20236;-66
2021/12/09 00:25:55;;;;;;;9.70;7.35;;;;;;;;;;5034942;28;20257;-66
2021/12/09 00:28:24;;;;;;;10.75;6.50;;;;;;;;;;5034643;28;20732;-67
2021/12/09 00:30:51;;;;;;;10.48;7.28;;;;;;;;;;5034911;28;20231;-67
2021/12/09 00:33:18;;;;;;;12.52;7.78;;;;;;;;;;5034797;28;20204;-67
2021/12/09 00:35:50;;;;;;;8.35;6.55;;;;;;;;;;5034317;28;20626;-67
2021/12/09 00:38:22;;;;;;;12.52;5.97;;;;;;;;;;5034958;28;20206;-67
2021/12/09 00:40:50;;;;;;;9.73;6.38;;;;;;;;;;5034491;28;20604;-67
2021/12/09 00:43:18;;;;;;;9.88;6.53;;;;;;;;;;5033981;28;20283;-67
2021/12/09 00:45:47;;;;;;;11.65;5.60;;;;;;;;;;5033890;28;20284;-66
2021/12/09 00:48:15;;;;;;;9.60;6.70;;;;;;;;;;5034355;28;20292;-67
2021/12/09 00:50:42;;;;;;;7.38;6.38;;;;;;;;;;5034227;28;20201;-67
2021/12/09 00:53:09;;;;;;;10.18;5.65;;;;;;;;;;5034390;28;20292;-68
2021/12/09 00:55:37;;;;;;;10.93;5.75;;;;;;;;;;5034479;28;20203;-67
2021/12/09 00:58:04;;;;;;;10.13;6.43;;;;;;;;;;5034610;28;20312;-67
2021/12/09 01:00:32;;;;;;;10.88;6.40;;;;;;;;;;5033726;28;20196;-67
2021/12/09 01:03:01;;;;;;;9.10;5.82;;;;;;;;;;5033635;28;20242;-67
2021/12/09 01:05:29;;;;;;;9.25;6.60;;;;;;;;;;5034683;28;20350;-67
2021/12/09 01:07:57;;;;;;;8.40;5.75;;;;;;;;;;5033617;28;20295;-68
2021/12/09 01:10:24;;;;;;;12.88;5.50;;;;;;;;;;5033996;28;20251;-67
2021/12/09 01:12:51;;;;;;;7.35;6.03;;;;;;;;;;5033526;28;20299;-67
2021/12/09 01:15:20;;;;;;;9.55;5.85;;;;;;;;;;5033762;28;20284;-67
2021/12/09 01:17:47;;;;;;;6.25;4.80;;;;;;;;;;5033323;28;20247;-66
2021/12/09 01:20:17;;;;;;;10.70;5.53;;;;;;;;;;5033755;28;20198;-66
2021/12/09 01:22:45;;;;;;;8.95;5.35;;;;;;;;;;5033666;28;20288;-68
2021/12/09 01:25:14;;;;;;;9.35;6.13;;;;;;;;;;5033359;28;20201;-68
2021/12/09 01:27:44;;;;;;;9.27;5.88;;;;;;;;;;5033409;28;20288;-67
2021/12/09 01:30:16;;;;;;;7.97;4.90;;;;;;;;;;5033362;28;20228;-67
2021/12/09 01:32:48;;;;;;;6.97;4.43;;;;;;;;;;5034034;28;20184;-67
2021/12/09 01:35:17;;;;;;;9.55;5.20;;;;;;;;;;5033607;28;20292;-67
2021/12/09 01:37:45;;;;;;;7.57;4.68;;;;;;;;;;5034288;28;20270;-67
2021/12/09 01:40:13;;;;;;;8.38;5.20;;;;;;;;;;5033434;28;20269;-67
2021/12/09 01:42:41;;;;;;;10.07;4.90;;;;;;;;;;5033364;28;20247;-67
2021/12/09 01:45:08;;;;;;;12.25;5.53;;;;;;;;;;5033359;28;20230;-67
2021/12/09 01:47:36;;;;;;;13.30;5.70;;;;;;;;;;5033054;28;20296;-67
2021/12/09 01:50:03;;;;;;;17.00;5.25;;;;;;;;;;5033310;28;20291;-67
2021/12/09 01:52:32;;;;;;;7.38;5.05;;;;;;;;;;5033331;28;20290;-67
2021/12/09 01:55:00;;;;;;;6.57;5.30;;;;;;;;;;5033203;28;20304;-67
2021/12/09 01:57:28;;;;;;;10.95;6.80;;;;;;;;;;5032862;28;20252;-67
2021/12/09 01:59:55;;;;;;;8.05;5.38;;;;;;;;;;5036817;28;20253;-67
2021/12/09 02:02:22;;;;;;;16.67;5.90;;;;;;;;;;5037406;28;20199;-67
2021/12/09 02:04:49;;;;;;;8.57;4.90;;;;;;;;;;5036732;28;20288;-67
2021/12/09 02:07:17;;;;;;;15.82;6.82;;;;;;;;;;5037243;28;20285;-67
2021/12/09 02:09:46;;;;;;;10.45;6.10;;;;;;;;;;5037242;28;20293;-68
2021/12/09 02:12:13;;;;;;;12.65;5.50;;;;;;;;;;5037189;28;20297;-67
2021/12/09 02:14:42;;;;;;;8.38;5.78;;;;;;;;;;5036844;28;20255;-67
2021/12/09 02:17:10;;;;;;;7.63;5.82;;;;;;;;;;5036975;28;20232;-67
2021/12/09 02:19:38;;;;;;;6.28;5.22;;;;;;;;;;5036874;28;20251;-67
2021/12/09 02:22:07;;;;;;;10.05;5.68;;;;;;;;;;5037253;28;20280;-67
2021/12/09 02:24:34;;;;;;;11.57;5.90;;;;;;;;;;5037208;28;20249;-67
2021/12/09 02:27:02;;;;;;;10.82;5.88;;;;;;;;;;5036941;28;20724;-67
2021/12/09 02:29:29;;;;;;;12.18;5.50;;;;;;;;;;5036876;28;20293;-66
2021/12/09 02:31:57;;;;;;;11.68;6.50;;;;;;;;;;5036449;28;20293;-66
2021/12/09 02:34:25;;;;;;;9.60;5.68;;;;;;;;;;5036782;28;20262;-66
2021/12/09 02:36:53;;;;;;;8.10;5.82;;;;;;;;;;5036868;28;20328;-66
2021/12/09 02:39:21;;;;;;;8.70;5.30;;;;;;;;;;5036541;28;20339;-66
2021/12/09 02:41:49;;;;;;;8.85;5.88;;;;;;;;;;5036307;28;20291;-67
2021/12/09 02:44:18;;;;;;;10.95;6.40;;;;;;;;;;5037080;28;20199;-66
2021/12/09 02:46:46;;;;;;;13.43;6.00;;;;;;;;;;5036512;28;20234;-67
2021/12/09 02:49:16;;;;;;;12.10;5.68;;;;;;;;;;5036259;28;20239;-67
2021/12/09 02:51:44;;;;;;;8.27;5.53;;;;;;;;;;5036173;28;20239;-67
2021/12/09 02:54:12;;;;;;;8.18;5.65;;;;;;;;;;5036447;28;20239;-67
2021/12/09 02:56:41;;;;;;;9.57;4.93;;;;;;;;;;5036064;28;20320;-67
2021/12/09 02:59:09;;;;;;;9.07;5.35;;;;;;;;;;5036128;28;20270;-66
2021/12/09 03:01:37;;;;;;;9.73;5.68;;;;;;;;;;5035931;28;20200;-66
2021/12/09 03:04:05;;;;;;;10.40;6.13;;;;;;;;;;5035786;28;20231;-66
2021/12/09 03:06:34;;;;;;;13.77;5.85;;;;;;;;;;5036467;28;20206;-67
2021/12/09 03:09:03;;;;;;;11.45;5.03;;;;;;;;;;5035891;28;20281;-67
2021/12/09 03:11:30;;;;;;;6.18;5.43;;;;;;;;;;5035860;28;20776;-67
2021/12/09 03:13:59;;;;;;;10.70;6.47;;;;;;;;;;5036107;28;20565;-67
2021/12/09 03:16:27;;;;;;;9.75;5.05;;;;;;;;;;5035615;28;20289;-68
2021/12/09 03:18:55;;;;;;;11.27;5.82;;;;;;;;;;5035788;28;20253;-67
2021/12/09 03:21:25;;;;;;;9.00;5.15;;;;;;;;;;5035880;28;20232;-66
2021/12/09 03:23:53;;;;;;;7.65;5.35;;;;;;;;;;5035785;28;20290;-67
2021/12/09 03:26:26;;;;;;;6.82;4.88;;;;;;;;;;5035495;28;20239;-67
2021/12/09 03:28:53;;;;;;;9.05;5.93;;;;;;;;;;5035570;28;20197;-67
2021/12/09 03:31:22;;;;;;;8.57;7.10;;;;;;;;;;5035635;28;20288;-66
2021/12/09 03:33:49;;;;;;;10.27;5.85;;;;;;;;;;5035883;28;20286;-66
2021/12/09 03:36:17;;;;;;;8.43;5.88;;;;;;;;;;5035695;28;20270;-66
2021/12/09 03:38:44;;;;;;;11.63;6.20;;;;;;;;;;5035580;28;20657;-66
2021/12/09 03:41:11;;;;;;;9.55;5.72;;;;;;;;;;5035602;28;20235;-66
2021/12/09 03:43:39;;;;;;;10.38;6.05;;;;;;;;;;5035564;28;20283;-66
2021/12/09 03:46:07;;;;;;;7.63;5.70;;;;;;;;;;5035177;28;20654;-67
2021/12/09 03:48:35;;;;;;;9.15;6.53;;;;;;;;;;5034967;28;20681;-66
2021/12/09 03:51:02;;;;;;;15.00;6.10;;;;;;;;;;5035906;28;20200;-66
2021/12/09 03:53:30;;;;;;;12.18;6.15;;;;;;;;;;5035362;28;20238;-66
2021/12/09 03:55:58;;;;;;;10.05;6.75;;;;;;;;;;5035601;28;20198;-67
2021/12/09 03:58:25;;;;;;;16.05;6.40;;;;;;;;;;5035156;28;20304;-67
2021/12/09 04:00:53;;;;;;;12.23;6.63;;;;;;;;;;5035363;28;20732;-67
2021/12/09 04:03:20;;;;;;;8.63;6.10;;;;;;;;;;5035147;28;20288;-66
2021/12/09 04:05:49;;;;;;;9.25;5.68;;;;;;;;;;5035371;28;20693;-66
2021/12/09 04:08:17;;;;;;;5.90;5.35;;;;;;;;;;5034949;28;20328;-66
2021/12/09 04:10:45;;;;;;;8.55;5.85;;;;;;;;;;5034644;28;20199;-66
2021/12/09 04:13:12;;;;;;;11.43;6.25;;;;;;;;;;5034675;28;20723;-66
2021/12/09 04:15:40;;;;;;;18.77;6.55;;;;;;;;;;5034629;28;20294;-66
2021/12/09 04:18:09;;;;;;;8.00;6.97;;;;;;;;;;5035297;28;20226;-67
2021/12/09 04:20:36;;;;;;;11.85;6.65;;;;;;;;;;5033809;28;20290;-67
2021/12/09 04:23:05;;;;;;;7.03;5.78;;;;;;;;;;5034495;28;20287;-67
2021/12/09 04:25:33;;;;;;;14.85;6.60;;;;;;;;;;5034320;28;20211;-67
2021/12/09 04:28:00;;;;;;;19.08;6.85;;;;;;;;;;5034529;28;20205;-66
2021/12/09 04:30:29;;;;;;;8.95;6.15;;;;;;;;;;5034579;28;20287;-66
2021/12/09 04:32:56;;;;;;;10.95;5.90;;;;;;;;;;5034646;28;20288;-67
2021/12/09 04:35:24;;;;;;;6.95;5.63;;;;;;;;;;5035031;28;20276;-67
2021/12/09 04:37:51;;;;;;;7.65;5.90;;;;;;;;;;5034245;28;20300;-67
2021/12/09 04:40:20;;;;;;;18.25;7.57;;;;;;;;;;5034644;28;20254;-66
2021/12/09 04:42:47;;;;;;;10.75;5.63;;;;;;;;;;5034139;28;20286;-66
2021/12/09 04:45:14;;;;;;;12.98;6.35;;;;;;;;;;5033953;28;20244;-66
2021/12/09 04:47:42;;;;;;;12.73;6.63;;;;;;;;;;5034850;28;20292;-67
2021/12/09 04:50:10;;;;;;;11.82;7.13;;;;;;;;;;5033926;28;20289;-66
2021/12/09 04:52:37;;;;;;;11.93;6.70;;;;;;;;;;5034537;28;20288;-67
2021/12/09 04:55:06;;;;;;;12.30;7.53;;;;;;;;;;5034269;28;20603;-67
2021/12/09 04:57:35;;;;;;;14.45;7.15;;;;;;;;;;5033925;28;20620;-66
2021/12/09 05:00:02;;;;;;;14.98;6.28;;;;;;;;;;5033647;28;20205;-66
2021/12/09 05:02:39;;;;;;;13.43;8.48;;;;;;;;;;5034049;28;20198;-67
2021/12/09 05:05:07;;;;;;;12.40;5.82;;;;;;;;;;5034025;28;20208;-66
2021/12/09 05:07:34;;;;;;;12.65;7.70;;;;;;;;;;5033508;28;20204;-67
2021/12/09 05:10:02;;;;;;;11.18;6.15;;;;;;;;;;5033820;28;20205;-67
2021/12/09 05:12:30;;;;;;;15.93;7.32;;;;;;;;;;5033592;28;20237;-67
2021/12/09 05:14:58;;;;;;;10.80;7.53;;;;;;;;;;5033756;28;20229;-66
2021/12/09 05:17:26;;;;;;;18.05;7.07;;;;;;;;;;5033565;28;20235;-66
2021/12/09 05:19:53;;;;;;;15.55;6.82;;;;;;;;;;5033808;28;20259;-66
2021/12/09 05:22:20;;;;;;;14.27;7.40;;;;;;;;;;5033986;28;20234;-66
2021/12/09 05:24:49;;;;;;;13.60;7.55;;;;;;;;;;5033742;28;20195;-66
2021/12/09 05:27:17;;;;;;;8.00;7.07;;;;;;;;;;5033854;28;20205;-67
2021/12/09 05:29:46;;;;;;;9.88;6.93;;;;;;;;;;5033643;28;20201;-68
2021/12/09 05:32:16;;;;;;;7.38;6.20;;;;;;;;;;5033502;28;20212;-68
2021/12/09 05:34:45;;;;;;;9.82;6.70;;;;;;;;;;5032772;28;20203;-68
2021/12/09 05:37:13;;;;;;;16.45;7.57;;;;;;;;;;5033156;28;20262;-68
2021/12/09 05:39:40;;;;;;;11.43;7.40;;;;;;;;;;5033213;28;20259;-68
2021/12/09 05:42:08;;;;;;;20.08;8.35;;;;;;;;;;5032711;28;20725;-68
2021/12/09 05:44:36;;;;;;;12.18;7.05;;;;;;;;;;5033529;28;20280;-68
2021/12/09 05:47:05;;;;;;;16.80;8.75;;;;;;;;;;5032816;28;20201;-68
2021/12/09 05:49:34;;;;;;;13.90;7.15;;;;;;;;;;5033338;28;20263;-69
2021/12/09 05:52:01;;;;;;;14.40;7.90;;;;;;;;;;5032961;28;20197;-68
2021/12/09 05:54:29;;;;;;;11.18;7.55;;;;;;;;;;5033530;28;20278;-68
2021/12/09 05:56:56;;;;;;;10.02;7.20;;;;;;;;;;5033436;28;20288;-68
2021/12/09 05:59:24;;;;;;;15.45;7.32;;;;;;;;;;5033617;28;20767;-68
2021/12/09 06:01:51;;;;;;;13.45;8.20;;;;;;;;;;5033478;28;20284;-69
2021/12/09 06:04:18;;;;;;;15.38;6.88;;;;;;;;;;5032851;28;20594;-68
2021/12/09 06:06:47;;;;;;;13.93;7.65;;;;;;;;;;5033198;28;20193;-69
2021/12/09 06:09:14;;;;;;;13.32;7.25;;;;;;;;;;5032926;28;20210;-69
2021/12/09 06:11:43;;;;;;;10.00;7.32;;;;;;;;;;5033220;28;20236;-68
2021/12/09 06:14:11;;;;;;;9.57;6.85;;;;;;;;;;5032774;28;20198;-69
2021/12/09 06:16:38;;;;;;;10.82;7.22;;;;;;;;;;5033139;28;20573;-69
2021/12/09 06:19:06;;;;;;;11.55;6.47;;;;;;;;;;5033082;28;20226;-69
2021/12/09 06:21:33;;;;;;;11.80;7.68;;;;;;;;;;5033241;28;20196;-68
2021/12/09 06:24:02;;;;;;;11.23;6.72;;;;;;;;;;5033358;28;20280;-69
2021/12/09 06:26:30;;;;;;;11.73;8.05;;;;;;;;;;5032472;28;20245;-69
2021/12/09 06:28:57;;;;;;;12.90;7.10;;;;;;;;;;5032484;28;20200;-68
2021/12/09 06:31:24;;;;;;;13.05;7.60;;;;;;;;;;5033074;28;20198;-69
2021/12/09 06:33:52;;;;;;;8.63;7.10;;;;;;;;;;5032596;28;20201;-77
2021/12/09 06:36:20;;;;;;;12.30;7.78;;;;;;;;;;5032265;28;20260;-69
2021/12/09 06:38:47;;;;;;;13.35;7.90;;;;;;;;;;5032461;28;20282;-69
2021/12/09 06:41:16;;;;;;;10.77;6.72;;;;;;;;;;5032526;28;20288;-69
2021/12/09 06:43:43;;;;;;;15.85;8.20;;;;;;;;;;5032816;28;20239;-69
2021/12/09 06:46:11;;;;;;;21.65;8.65;;;;;;;;;;5036520;28;20279;-69
2021/12/09 06:48:39;;;;;;;15.43;7.97;;;;;;;;;;5036349;28;20564;-69
2021/12/09 06:51:08;;;;;;;15.48;8.43;;;;;;;;;;5036647;28;20208;-68
2021/12/09 06:53:36;;;;;;;11.10;7.20;;;;;;;;;;5036149;28;20201;-69
2021/12/09 06:56:04;;;;;;;17.23;9.77;;;;;;;;;;5036297;28;20286;-69
2021/12/09 06:58:33;;;;;;;14.70;8.07;;;;;;;;;;5036789;28;20308;-69
2021/12/09 07:01:01;;;;;;;13.43;8.32;;;;;;;;;;5036706;28;20289;-69
2021/12/09 07:03:28;;;;;;;12.75;7.78;;;;;;;;;;5036048;28;20207;-69
2021/12/09 07:06:01;;;;;;;14.63;8.30;;;;;;;;;;5036027;28;20611;-69
2021/12/09 07:08:30;;;;;;;16.48;8.38;;;;;;;;;;5035848;28;20225;-69
2021/12/09 07:11:05;;;;;;;20.70;7.40;;;;;;;;;;5035704;28;20243;-69
2021/12/09 07:13:40;;;;;;;21.67;8.95;;;;;;;;;;5036210;28;20217;-68
2021/12/09 07:16:24;;;;;;;12.57;8.50;;;;;;;;;;5036115;28;20231;-69
2021/12/09 07:18:52;;;;;;;15.38;7.57;;;;;;;;;;5035555;28;20296;-68
2021/12/09 07:21:22;;;;;;;16.42;9.00;;;;;;;;;;5035681;28;20544;-69
2021/12/09 07:23:49;;;;;;;12.48;8.15;;;;;;;;;;5035780;28;20659;-69
2021/12/09 07:26:17;;;;;;;9.88;6.85;;;;;;;;;;5035708;28;20283;-69
2021/12/09 07:28:46;;;;;;;13.20;7.03;;;;;;;;;;5035610;28;20204;-69
2021/12/09 07:31:14;;;;;;;13.63;8.63;;;;;;;;;;5035948;28;20545;-69
2021/12/09 07:33:41;;;;;;;13.13;6.88;;;;;;;;;;5035951;28;20527;-68
2021/12/09 07:36:09;;;;;;;17.90;7.90;;;;;;;;;;5035751;28;20328;-68
2021/12/09 07:38:36;;;;;;;20.00;8.57;;;;;;;;;;5035321;28;20196;-69
2021/12/09 07:41:03;;;;;;;19.25;9.48;;;;;;;;;;5035482;28;20205;-68
2021/12/09 07:43:31;;;;;;;18.05;7.90;;;;;;;;;;5035034;28;20232;-68
2021/12/09 07:45:59;;;;;;;11.65;8.10;;;;;;;;;;5035382;28;20231;-68
2021/12/09 07:48:27;;;;;;;19.55;6.70;;;;;;;;;;5035133;28;20310;-69
2021/12/09 07:50:54;;;;;;;16.73;7.72;;;;;;;;;;5034997;28;20197;-68
2021/12/09 07:53:22;;;;;;;16.92;12.05;;;;;;;;;;5035035;28;20286;-68
2021/12/09 07:55:50;;;;;;;27.33;15.35;;;;;;;;;;5034354;28;20550;-69
2021/12/09 07:58:17;;;;;;;22.85;10.55;;;;;;;;;;5035765;28;20223;-69
2021/12/09 08:00:44;;;;;;;16.98;10.10;;;;;;;;;;5035588;28;20651;-69
2021/12/09 08:03:13;;;;;;;19.52;11.00;;;;;;;;;;5035240;28;20280;-68
2021/12/09 08:05:41;;;;;;;19.02;8.38;;;;;;;;;;5034811;28;20291;-69
2021/12/09 08:08:09;;;;;;;13.02;8.80;;;;;;;;;;5034986;28;20628;-68
2021/12/09 08:10:36;;;;;;;16.33;7.80;;;;;;;;;;5035329;28;20206;-69
2021/12/09 08:13:03;;;;;;;12.95;7.93;;;;;;;;;;5034758;28;20239;-69
2021/12/09 08:15:33;;;;;;;14.73;8.07;;;;;;;;;;5035027;28;20246;-69
2021/12/09 08:18:15;;;;;;;12.13;8.38;;;;;;;;;;5034708;28;20681;-69
2021/12/09 08:20:43;;;;;;;13.27;7.00;;;;;;;;;;5034841;28;20208;-69
2021/12/09 08:23:11;;;;;;;10.13;6.78;;;;;;;;;;5034962;28;20292;-68
2021/12/09 08:25:38;;;;;;;11.00;6.85;;;;;;;;;;5034428;28;20284;-68
2021/12/09 08:28:06;;;;;;;14.18;7.38;;;;;;;;;;5034338;28;20564;-68
2021/12/09 08:30:33;;;;;;;18.05;7.20;;;;;;;;;;5034098;28;20235;-68
2021/12/09 08:33:01;;;;;;;14.57;7.38;;;;;;;;;;5034233;28;20203;-68
2021/12/09 08:35:29;;;;;;;18.40;7.72;;;;;;;;;;5034315;28;20225;-69
2021/12/09 08:37:58;;;;;;;15.85;7.65;;;;;;;;;;5034838;28;20213;-69
2021/12/09 08:40:26;;;;;;;14.45;7.38;;;;;;;;;;5034768;28;20616;-68
2021/12/09 08:42:54;;;;;;;12.32;6.80;;;;;;;;;;5034119;28;20240;-69
2021/12/09 08:45:22;;;;;;;16.50;7.60;;;;;;;;;;5034636;28;20204;-69
2021/12/09 08:47:49;;;;;;;17.08;7.07;;;;;;;;;;5034483;28;20281;-68
2021/12/09 08:50:18;;;;;;;16.00;8.30;;;;;;;;;;5034286;28;20204;-68
2021/12/09 08:52:46;;;;;;;15.52;8.50;;;;;;;;;;5034519;28;20206;-69
2021/12/09 08:55:15;;;;;;;16.33;9.38;;;;;;;;;;5035170;28;20250;-68
2021/12/09 08:57:43;;;;;;;14.30;7.32;;;;;;;;;;5034795;28;20197;-69
2021/12/09 09:00:11;;;;;;;11.80;6.80;;;;;;;;;;5033816;28;20288;-69
2021/12/09 09:02:41;;;;;;;12.48;7.72;;;;;;;;;;5033960;28;20645;-69
2021/12/09 09:05:11;;;;;;;15.90;7.45;;;;;;;;;;5033797;28;21518;-69
2021/12/09 09:07:38;;;;;;;44.50;13.57;;;;;;;;;;5033409;28;20202;-69
2021/12/09 09:10:06;;;;;;;19.23;8.63;;;;;;;;;;5033894;28;20290;-69
2021/12/09 09:12:36;;;;;;;11.95;6.05;;;;;;;;;;5033941;28;20196;-69
2021/12/09 09:15:04;;;;;;;39.97;15.65;;;;;;;;;;5034414;28;20185;-69
2021/12/09 09:17:31;;;;;;;10.68;6.65;;;;;;;;;;5033394;28;20247;-69
2021/12/09 09:19:59;;;;;;;21.77;7.63;;;;;;;;;;5033699;28;20310;-69
2021/12/09 09:22:26;;;;;;;16.75;6.28;;;;;;;;;;5033459;28;20196;-69
2021/12/09 09:24:53;;;;;;;18.45;9.73;;;;;;;;;;5033410;28;20257;-69
2021/12/09 09:27:20;;;;;;;15.15;6.78;;;;;;;;;;5033818;28;20236;-69
2021/12/09 09:29:49;;;;;;;12.85;7.32;;;;;;;;;;5034292;28;20555;-68
2021/12/09 09:32:16;;;;;;;14.73;7.35;;;;;;;;;;5033345;28;20198;-68
2021/12/09 09:34:44;;;;;;;14.25;7.20;;;;;;;;;;5033338;28;20232;-69
2021/12/09 09:37:11;;;;;;;19.00;7.00;;;;;;;;;;5033638;28;20306;-68
2021/12/09 09:39:42;;;;;;;13.32;6.20;;;;;;;;;;5033076;28;20216;-69
2021/12/09 09:42:32;;;;;;;17.77;8.85;;;;;;;;;;5033224;28;20181;-69
2021/12/09 09:45:00;;;;;;;9.63;6.00;;;;;;;;;;5033191;28;20639;-69
2021/12/09 09:47:29;;;;;;;11.90;6.07;;;;;;;;;;5032964;28;20682;-69
2021/12/09 09:49:57;;;;;;;10.15;6.55;;;;;;;;;;5033516;28;20202;-69
2021/12/09 09:52:24;;;;;;;16.45;6.15;;;;;;;;;;5033182;28;20206;-68
2021/12/09 09:54:54;;;;;;;22.70;6.63;;;;;;;;;;5032727;28;20228;-69
2021/12/09 09:57:21;;;;;;;21.55;6.18;;;;;;;;;;5033670;28;20219;-68
2021/12/09 09:59:49;;;;;;;12.75;6.45;;;;;;;;;;5033136;28;20254;-67
2021/12/09 10:02:18;;;;;;;11.07;6.80;;;;;;;;;;5032702;28;20282;-68
2021/12/09 10:04:47;;;;;;;12.25;6.63;;;;;;;;;;5034072;28;20229;-67
2021/12/09 10:07:16;;;;;;;11.13;6.18;;;;;;;;;;5033231;28;20246;-68
2021/12/09 10:09:44;;;;;;;10.27;5.50;;;;;;;;;;5033193;28;20196;-68
2021/12/09 10:12:12;;;;;;;13.60;6.57;;;;;;;;;;5033272;28;20620;-68
2021/12/09 10:14:39;;;;;;;12.65;5.85;;;;;;;;;;5033011;28;20202;-68
2021/12/09 10:17:08;;;;;;;17.55;6.80;;;;;;;;;;5033107;28;20221;-68
2021/12/09 10:19:38;;;;;;;12.73;6.43;;;;;;;;;;5034508;28;20311;-67
2021/12/09 10:22:07;;;;;;;19.48;6.72;;;;;;;;;;5037222;28;20301;-69
2021/12/09 10:24:35;;;;;;;10.65;6.28;;;;;;;;;;5037116;28;20232;-67
2021/12/09 10:27:02;;;;;;;6.45;5.57;;;;;;;;;;5036864;28;20237;-68
2021/12/09 10:29:33;;;;;;;11.00;5.63;;;;;;;;;;5036945;28;20192;-68
2021/12/09 10:32:02;;;;;;;11.07;5.93;;;;;;;;;;5036684;28;20186;-68
2021/12/09 10:34:35;;;;;;;16.98;5.47;;;;;;;;;;5037046;28;20197;-68
2021/12/09 10:37:09;;;;;;;12.05;6.43;;;;;;;;;;5036507;28;20236;-67
2021/12/09 10:39:39;;;;;;;13.30;5.40;;;;;;;;;;5036442;28;20216;-68
2021/12/09 10:42:08;;;;;;;9.63;5.65;;;;;;;;;;5036921;28;20583;-68
2021/12/09 10:44:37;;;;;;;11.32;6.53;;;;;;;;;;5036574;28;20229;-67
2021/12/09 10:47:09;;;;;;;14.50;6.63;;;;;;;;;;5036675;28;20231;-68
2021/12/09 10:49:46;;;;;;;9.95;5.47;;;;;;;;;;5036559;28;20209;-68
2021/12/09 10:52:23;;;;;;;9.63;5.40;;;;;;;;;;5036357;28;20205;-67
2021/12/09 10:54:50;;;;;;;10.80;5.60;;;;;;;;;;5036929;28;20221;-68
2021/12/09 10:57:38;;;;;;;5.45;4.90;;;;;;;;;;5036329;28;20202;-68
2021/12/09 11:00:17;;;;;;;11.68;5.95;;;;;;;;;;5032991;28;20260;-68
2021/12/09 11:02:57;;;;;;;9.05;4.82;;;;;;;;;;5036065;28;20204;-68
2021/12/09 11:05:24;;;;;;;18.98;5.75;;;;;;;;;;5035920;28;20247;-68
2021/12/09 11:07:53;;;;;;;10.70;5.35;;;;;;;;;;5035864;28;20291;-69
2021/12/09 11:10:22;;;;;;;9.35;5.80;;;;;;;;;;5036313;28;20233;-68
2021/12/09 11:12:54;;;;;;;13.75;5.50;;;;;;;;;;5035760;28;20207;-69
2021/12/09 11:15:23;;;;;;;16.02;5.65;;;;;;;;;;5035855;28;20296;-68
2021/12/09 11:17:52;;;;;;;11.90;5.38;;;;;;;;;;5036154;28;20202;-68
2021/12/09 11:20:34;;;;;;;7.75;5.28;;;;;;;;;;5035803;28;20314;-68
2021/12/09 11:23:22;;;;;;;10.30;6.03;;;;;;;;;;5035997;28;20207;-68
2021/12/09 11:25:50;;;;;;;15.25;5.57;;;;;;;;;;5035707;28;20190;-68
2021/12/09 11:28:17;;;;;;;11.05;7.05;;;;;;;;;;5035808;28;20196;-69
2021/12/09 11:31:06;;;;;;;10.75;6.13;;;;;;;;;;5035523;28;20291;-68
2021/12/09 11:33:37;;;;;;;18.50;6.10;;;;;;;;;;5036028;28;20240;-68
2021/12/09 11:36:07;;;;;;;10.25;5.93;;;;;;;;;;5035287;28;20745;-69
2021/12/09 11:38:53;;;;;;;9.38;6.05;;;;;;;;;;5035794;28;20196;-68
2021/12/09 11:41:30;;;;;;;7.40;4.65;;;;;;;;;;5035872;28;20665;-68
2021/12/09 11:43:57;;;;;;;9.10;5.30;;;;;;;;;;5035237;28;20301;-69
2021/12/09 11:46:24;;;;;;;8.90;4.90;;;;;;;;;;5035364;28;20284;-68
2021/12/09 11:48:51;;;;;;;7.55;6.03;;;;;;;;;;5035467;28;20287;-68
2021/12/09 11:51:19;;;;;;;6.75;5.57;;;;;;;;;;5035126;28;20761;-68
2021/12/09 11:53:54;;;;;;;9.63;5.88;;;;;;;;;;5035051;28;20225;-68
2021/12/09 11:56:27;;;;;;;9.40;6.07;;;;;;;;;;5036023;28;20190;-68
2021/12/09 11:59:24;;;;;;;8.85;5.63;;;;;;;;;;5035293;28;20189;-68
2021/12/09 12:16:37;;;;;;;8.10;5.55;;;;;;;;;;5033861;28;20292;-69
2021/12/09 12:19:12;;;;;;;6.30;5.45;;;;;;;;;;5035954;28;20243;-69
2021/12/09 12:24:41;;;;;;;10.20;5.82;;;;;;;;;;5031454;28;20587;-69
2021/12/09 12:27:25;;;;;;;11.07;7.05;;;;;;;;;;5034980;28;20193;-69
2021/12/09 12:30:14;;;;;;;15.30;6.60;;;;;;;;;;5033952;28;20232;-69
2021/12/09 12:33:10;;;;;;;11.02;6.50;;;;;;;;;;5034918;28;20190;-69
2021/12/09 12:41:17;;;;;;;14.20;7.00;;;;;;;;;;5028557;28;20226;-69
2021/12/09 12:43:52;;;;;;;13.35;8.32;;;;;;;;;;5033915;28;20226;-68
2021/12/09 12:46:40;;;;;;;12.90;7.90;;;;;;;;;;5034557;28;20634;-68
2021/12/09 12:49:16;;;;;;;14.27;7.20;;;;;;;;;;5034183;28;20229;-69
2021/12/09 12:51:52;;;;;;;8.80;6.75;;;;;;;;;;5034749;28;20188;-69
2021/12/09 12:54:30;;;;;;;16.50;8.15;;;;;;;;;;5034583;28;20197;-69
2021/12/09 12:57:00;;;;;;;9.02;6.32;;;;;;;;;;5034141;28;20189;-69
2021/12/09 12:59:31;;;;;;;11.32;6.25;;;;;;;;;;5034357;28;20728;-69
2021/12/09 13:05:30;;;;;;;13.75;6.00;;;;;;;;;;5034361;28;20542;-68
2021/12/09 13:08:23;;;;;;;10.52;6.60;;;;;;;;;;5033974;28;20192;-69
2021/12/09 13:11:04;;;;;;;13.55;6.90;;;;;;;;;;5034065;28;20202;-68
2021/12/09 13:13:43;;;;;;;7.80;5.40;;;;;;;;;;5033734;28;20605;-68
2021/12/09 13:16:15;;;;;;;11.15;6.43;;;;;;;;;;5033971;28;20317;-68
2021/12/09 13:18:47;;;;;;;10.27;5.07;;;;;;;;;;5034343;28;20617;-65
2021/12/09 13:21:33;;;;;;;11.35;5.60;;;;;;;;;;5034387;28;20683;-66
2021/12/09 13:24:15;;;;;;;13.70;6.90;;;;;;;;;;5033551;28;20291;-67
2021/12/09 13:27:09;;;;;;;9.30;6.05;;;;;;;;;;5033459;28;20228;-66
2021/12/09 13:29:45;;;;;;;11.05;6.13;;;;;;;;;;5033293;28;20188;-67
2021/12/09 13:32:48;;;;;;;14.07;7.80;;;;;;;;;;5032613;28;20294;-66
2021/12/09 13:35:23;;;;;;;11.45;5.85;;;;;;;;;;5032754;28;20196;-67
2021/12/09 13:38:09;;;;;;;7.28;5.68;;;;;;;;;;5033674;28;20309;-67
2021/12/09 13:45:50;;;;;;;13.35;6.70;;;;;;;;;;5033263;28;20267;-67
2021/12/09 13:46:26;;;;;;;10.52;5.50;;;;;;;;;;5033063;28;20554;-67
2021/12/09 13:49:01;;;;;;;12.02;6.88;;;;;;;;;;5033414;28;20189;-67
2021/12/09 13:51:54;;;;;;;10.77;5.70;;;;;;;;;;5033785;28;20190;-68
2021/12/09 13:54:25;;;;;;;14.05;6.35;;;;;;;;;;5032504;28;20627;-67
2021/12/09 13:57:00;;;;;;;9.57;6.47;;;;;;;;;;5032653;28;20189;-67
2021/12/09 13:59:30;;;;;;;12.02;6.00;;;;;;;;;;5032699;28;20610;-67
2021/12/09 14:01:59;;;;;;;12.05;6.55;;;;;;;;;;5032565;28;20781;-67
2021/12/09 14:04:34;;;;;;;7.95;5.55;;;;;;;;;;5033107;28;20289;-67
2021/12/09 14:07:09;;;;;;;9.65;5.43;;;;;;;;;;5032753;28;20236;-67
2021/12/09 14:09:37;;;;;;;9.45;5.68;;;;;;;;;;5032987;28;20248;-67
2021/12/09 14:12:05;;;;;;;10.32;6.32;;;;;;;;;;5033358;28;20209;-67
2021/12/09 14:14:42;;;;;;;12.23;5.85;;;;;;;;;;5032853;28;20650;-68
2021/12/09 14:17:16;;;;;;;15.32;6.45;;;;;;;;;;5033027;28;20708;-68
2021/12/09 14:20:01;;;;;;;7.60;6.50;;;;;;;;;;5033266;28;20243;-66
2021/12/09 14:22:29;;;;;;;8.38;5.53;;;;;;;;;;5032668;28;20214;-67
2021/12/09 14:25:00;;;;;;;12.55;5.97;;;;;;;;;;5032721;28;20758;-67
2021/12/09 14:27:27;;;;;;;8.60;5.93;;;;;;;;;;5032952;28;20221;-67
2021/12/09 14:30:01;;;;;;;9.88;6.07;;;;;;;;;;5033080;28;20284;-67
2021/12/09 14:32:46;;;;;;;11.27;8.75;;;;;;;;;;5033332;28;20277;-67
2021/12/09 14:35:19;;;;;;;10.77;6.57;;;;;;;;;;5032905;28;20213;-66
2021/12/09 14:37:51;;;;;;;12.40;7.63;;;;;;;;;;5033290;28;20281;-67
2021/12/09 14:40:23;;;;;;;16.45;8.00;;;;;;;;;;5033470;28;20613;-67
2021/12/09 14:42:55;;;;;;;9.63;7.63;;;;;;;;;;5032293;28;20228;-67
2021/12/09 14:45:24;;;;;;;11.05;7.45;;;;;;;;;;5032466;28;20182;-67
2021/12/09 14:47:55;;;;;;;14.43;7.10;;;;;;;;;;5032692;28;20617;-67
2021/12/09 14:50:34;;;;;;;13.88;9.45;;;;;;;;;;5032897;28;20229;-67
2021/12/09 14:53:02;;;;;;;15.00;9.80;;;;;;;;;;5032589;28;20300;-67
2021/12/09 14:55:31;;;;;;;13.25;10.20;;;;;;;;;;5032848;28;20201;-67
2021/12/09 14:58:03;;;;;;;19.05;7.95;;;;;;;;;;5033083;28;20255;-66
2021/12/09 15:00:40;;;;;;;12.00;7.35;;;;;;;;;;5032729;28;20583;-67
2021/12/09 15:03:08;;;;;;;10.65;7.95;;;;;;;;;;5032547;28;20294;-66
2021/12/09 15:05:47;;;;;;;9.30;6.78;;;;;;;;;;5033609;28;20245;-67
2021/12/09 15:08:20;;;;;;;10.88;6.45;;;;;;;;;;5036432;28;20269;-66
2021/12/09 15:10:50;;;;;;;9.32;7.47;;;;;;;;;;5036452;28;20210;-66
2021/12/09 15:13:19;;;;;;;16.58;7.72;;;;;;;;;;5035874;28;20196;-67
2021/12/09 15:16:10;;;;;;;10.45;7.32;;;;;;;;;;5036466;28;20202;-66
2021/12/09 15:18:39;;;;;;;10.88;7.43;;;;;;;;;;5036049;28;20634;-66
2021/12/09 15:21:18;;;;;;;13.18;8.05;;;;;;;;;;5035632;28;20280;-67